Terminal Aerodrome Forecast
Issued by NWS

Home | Current Version | Previous Version | Text Only | Print | Product List | Glossary On
Versions: 1 2 3 4 5 6 7 8 9 10 11 12 13
000
FTAK31 PAFA 121724
TAFASC
TAF
PASC 121724Z 1218/1318 07022KT 1SM -SN BR OVC007=

USA.gov is the U.S. government's official web portal to all federal, state and local government web resources and services.